Time;durP1;ratioP1;P1;durP2;ratioP2;P2;SDS_P1;SDS_P2;PMS_P1;PMS_P2;Temp;Humidity;BMP_temperature;BMP_pressure;BME280_temperature;BME280_humidity;BME280_pressure;Samples;Min_cycle;Max_cycle;Signal;HPM_P1;HPM_P2
2023/08/20 00:01:43;;;;;;;;;;;20.80;99.90;;;;;;7338849;19;110396;-63
2023/08/20 00:04:11;;;;;;;;;;;20.80;99.90;;;;;;7335097;19;108353;-63
2023/08/20 00:06:38;;;;;;;;;;;20.70;99.90;;;;;;7334663;19;109400;-62
2023/08/20 00:09:07;;;;;;;;;;;20.70;99.90;;;;;;7336191;19;108681;-63
2023/08/20 00:11:35;;;;;;;;;;;20.70;99.90;;;;;;7341358;19;111103;-62
2023/08/20 00:14:02;;;;;;;;;;;20.70;99.90;;;;;;7335395;19;108694;-62
2023/08/20 00:16:30;;;;;;;;;;;20.70;99.90;;;;;;7331910;19;110108;-63
2023/08/20 00:18:57;;;;;;;;;;;20.70;99.90;;;;;;7332091;19;109160;-62
2023/08/20 00:21:25;;;;;;;;;;;20.80;99.90;;;;;;7334624;19;108855;-62
2023/08/20 00:23:53;;;;;;;;;;;20.80;99.90;;;;;;7334118;19;109251;-58
2023/08/20 00:26:20;;;;;;;;;;;20.80;99.90;;;;;;7335402;19;109257;-62
2023/08/20 00:28:47;;;;;;;;;;;20.80;99.90;;;;;;7333679;19;108699;-62
2023/08/20 00:31:14;;;;;;;;;;;20.80;99.90;;;;;;7339630;19;109756;-62
2023/08/20 00:33:41;;;;;;;;;;;20.80;99.90;;;;;;7333492;19;108998;-62
2023/08/20 00:36:23;;;;;;;;;;;20.90;99.90;;;;;;7334700;19;108862;-63
2023/08/20 00:38:50;;;;;;;;;;;20.90;99.90;;;;;;7335617;19;110183;-62
2023/08/20 00:41:17;;;;;;;;;;;20.90;99.90;;;;;;7335399;19;108604;-62
2023/08/20 00:43:44;;;;;;;;;;;21.00;99.90;;;;;;7337166;19;109052;-62
2023/08/20 00:46:11;;;;;;;;;;;21.00;99.90;;;;;;7335386;19;110316;-62
2023/08/20 00:48:39;;;;;;;;;;;21.00;99.90;;;;;;7336017;19;109106;-64
2023/08/20 00:51:06;;;;;;;;;;;21.10;99.90;;;;;;7339817;19;109302;-62
2023/08/20 00:53:33;;;;;;;;;;;21.10;99.90;;;;;;7342121;19;110445;-63
2023/08/20 00:56:00;;;;;;;;;;;21.10;99.90;;;;;;7333613;19;110459;-62
2023/08/20 00:58:27;;;;;;;;;;;21.10;99.90;;;;;;7333986;19;109680;-62
2023/08/20 01:00:54;;;;;;;;;;;21.10;99.90;;;;;;7334256;19;112174;-62
2023/08/20 01:03:21;;;;;;;;;;;21.10;99.90;;;;;;7337677;19;109405;-63
2023/08/20 01:05:51;;;;;;;;;;;21.10;99.90;;;;;;7334805;19;110442;-63
2023/08/20 01:08:44;;;;;;;;;;;21.10;99.90;;;;;;7335136;19;111750;-62
2023/08/20 01:11:22;;;;;;;;;;;21.10;99.90;;;;;;7332672;19;110145;-62
2023/08/20 01:13:49;;;;;;;;;;;21.00;99.90;;;;;;7333993;19;111585;-63
2023/08/20 01:16:16;;;;;;;;;;;20.90;99.90;;;;;;7339785;19;108740;-62
2023/08/20 01:18:43;;;;;;;;;;;20.90;99.90;;;;;;7337737;19;109562;-62
2023/08/20 01:21:30;;;;;;;;;;;20.90;99.90;;;;;;7339434;19;109189;-63
2023/08/20 01:24:10;;;;;;;;;;;20.90;99.90;;;;;;7335465;19;110503;-63
2023/08/20 01:26:40;;;;;;;;;;;20.90;99.90;;;;;;7331941;19;109482;-62
2023/08/20 01:29:08;;;;;;;;;;;20.80;99.90;;;;;;7335044;19;108806;-62
2023/08/20 01:31:35;;;;;;;;;;;20.90;99.90;;;;;;7331674;19;108585;-63
2023/08/20 01:34:03;;;;;;;;;;;20.90;99.90;;;;;;7333770;19;110491;-62
2023/08/20 01:36:33;;;;;;;;;;;20.80;99.90;;;;;;7324791;19;110384;-65
2023/08/20 01:39:00;;;;;;;;;;;20.80;99.90;;;;;;7336121;19;108867;-62
2023/08/20 01:41:27;;;;;;;;;;;20.90;99.90;;;;;;7333033;19;109086;-61
2023/08/20 01:43:55;;;;;;;;;;;20.90;99.90;;;;;;7333693;19;108781;-62
2023/08/20 01:46:22;;;;;;;;;;;21.00;99.90;;;;;;7330616;19;109288;-61
2023/08/20 01:48:49;;;;;;;;;;;21.00;99.90;;;;;;7335840;19;108927;-61
2023/08/20 01:51:16;;;;;;;;;;;21.00;99.90;;;;;;7331127;19;108919;-61
2023/08/20 01:53:43;;;;;;;;;;;21.10;99.90;;;;;;7335318;19;109373;-61
2023/08/20 01:56:11;;;;;;;;;;;21.10;99.90;;;;;;7332692;19;109045;-61
2023/08/20 01:58:38;;;;;;;;;;;21.10;99.90;;;;;;7333225;19;110677;-61
2023/08/20 02:01:05;;;;;;;;;;;21.10;99.90;;;;;;7338628;19;110253;-62
2023/08/20 02:03:34;;;;;;;;;;;21.10;99.90;;;;;;7331024;19;109319;-61
2023/08/20 02:06:01;;;;;;;;;;;21.10;99.90;;;;;;7334394;19;109707;-61
2023/08/20 02:08:29;;;;;;;;;;;21.10;99.90;;;;;;7334735;19;109112;-61
2023/08/20 02:11:02;;;;;;;;;;;21.20;99.90;;;;;;7333101;19;109099;-61
2023/08/20 02:13:30;;;;;;;;;;;21.20;99.90;;;;;;7327849;19;110290;-62
2023/08/20 02:15:58;;;;;;;;;;;21.10;99.90;;;;;;7332594;19;109003;-62
2023/08/20 02:18:25;;;;;;;;;;;21.20;99.90;;;;;;7335166;19;109413;-61
2023/08/20 02:20:52;;;;;;;;;;;21.20;99.90;;;;;;7333927;19;109507;-61
2023/08/20 02:23:19;;;;;;;;;;;21.10;99.90;;;;;;7335243;19;108377;-61
2023/08/20 02:25:46;;;;;;;;;;;21.00;99.90;;;;;;7334499;19;109121;-61
2023/08/20 02:28:13;;;;;;;;;;;21.00;99.90;;;;;;7332710;19;108436;-61
2023/08/20 02:30:44;;;;;;;;;;;20.90;99.90;;;;;;7331252;19;108674;-62
2023/08/20 02:33:12;;;;;;;;;;;20.80;99.90;;;;;;7332694;19;109427;-61
2023/08/20 02:35:39;;;;;;;;;;;20.70;99.90;;;;;;7334142;19;108824;-61
2023/08/20 02:38:06;;;;;;;;;;;20.70;99.90;;;;;;7328064;19;108753;-61
2023/08/20 02:40:38;;;;;;;;;;;20.60;99.90;;;;;;7332025;19;113792;-61
2023/08/20 02:43:05;;;;;;;;;;;20.50;99.90;;;;;;7337021;19;108391;-61
2023/08/20 02:45:33;;;;;;;;;;;20.40;99.90;;;;;;7331012;19;110129;-61
2023/08/20 02:48:00;;;;;;;;;;;20.20;99.90;;;;;;7329845;19;108810;-61
2023/08/20 02:50:28;;;;;;;;;;;20.10;99.90;;;;;;7331273;19;108947;-62
2023/08/20 02:52:56;;;;;;;;;;;20.10;99.90;;;;;;7331043;19;109479;-62
2023/08/20 02:55:24;;;;;;;;;;;20.00;99.90;;;;;;7333922;19;109688;-63
2023/08/20 02:57:55;;;;;;;;;;;20.10;99.90;;;;;;7337673;19;109641;-62
2023/08/20 03:00:22;;;;;;;;;;;20.10;99.90;;;;;;7338036;19;109686;-62
2023/08/20 03:02:49;;;;;;;;;;;20.10;99.90;;;;;;7339382;19;109584;-62
2023/08/20 03:05:16;;;;;;;;;;;20.10;99.90;;;;;;7344807;19;108704;-62
2023/08/20 03:07:43;;;;;;;;;;;20.00;99.90;;;;;;7336570;19;109424;-62
2023/08/20 03:10:10;;;;;;;;;;;20.00;99.90;;;;;;7338912;19;109160;-62
2023/08/20 03:12:37;;;;;;;;;;;19.90;99.90;;;;;;7336256;19;112215;-62
2023/08/20 03:15:05;;;;;;;;;;;19.80;99.90;;;;;;7340274;19;108735;-62
2023/08/20 03:17:32;;;;;;;;;;;19.80;99.90;;;;;;7339679;19;109389;-62
2023/08/20 03:20:00;;;;;;;;;;;19.80;99.90;;;;;;7337165;19;109411;-62
2023/08/20 03:22:27;;;;;;;;;;;19.70;99.90;;;;;;7339108;19;109217;-62
2023/08/20 03:24:54;;;;;;;;;;;19.70;99.90;;;;;;7337025;19;108312;-62
2023/08/20 03:27:23;;;;;;;;;;;19.60;99.90;;;;;;7342240;19;110795;-62
2023/08/20 03:29:51;;;;;;;;;;;19.60;99.90;;;;;;7332355;19;109718;-62
2023/08/20 03:32:18;;;;;;;;;;;19.60;99.90;;;;;;7340674;19;109417;-62
2023/08/20 03:34:45;;;;;;;;;;;19.50;99.90;;;;;;7338339;19;111096;-62
2023/08/20 03:37:12;;;;;;;;;;;19.50;99.90;;;;;;7338114;19;109304;-62
2023/08/20 03:39:40;;;;;;;;;;;19.50;99.90;;;;;;7338082;19;109251;-62
2023/08/20 03:42:07;;;;;;;;;;;19.40;99.90;;;;;;7333213;19;110205;-62
2023/08/20 03:44:34;;;;;;;;;;;19.30;99.90;;;;;;7335201;19;109114;-62
2023/08/20 03:47:01;;;;;;;;;;;19.10;99.90;;;;;;7335247;19;109213;-62
2023/08/20 03:49:28;;;;;;;;;;;19.10;99.90;;;;;;7340849;19;110192;-62
2023/08/20 03:51:55;;;;;;;;;;;19.10;99.90;;;;;;7338092;19;109098;-62
2023/08/20 03:54:22;;;;;;;;;;;19.10;99.90;;;;;;7335609;19;110395;-62
2023/08/20 03:56:49;;;;;;;;;;;19.10;99.90;;;;;;7337240;19;109465;-62
2023/08/20 03:59:16;;;;;;;;;;;19.10;99.90;;;;;;7337937;19;109548;-62
2023/08/20 04:01:43;;;;;;;;;;;19.10;99.90;;;;;;7337007;19;109583;-62
2023/08/20 04:04:11;;;;;;;;;;;19.00;99.90;;;;;;7340109;19;108946;-62
2023/08/20 04:06:38;;;;;;;;;;;19.00;99.90;;;;;;7333854;19;110285;-62
2023/08/20 04:09:06;;;;;;;;;;;18.90;99.90;;;;;;7337168;19;108695;-62
2023/08/20 04:11:33;;;;;;;;;;;18.90;99.90;;;;;;7342653;19;110639;-62
2023/08/20 04:14:00;;;;;;;;;;;19.00;99.90;;;;;;7340148;19;109966;-62
2023/08/20 04:16:29;;;;;;;;;;;19.00;99.90;;;;;;7334407;19;108334;-62
2023/08/20 04:18:56;;;;;;;;;;;19.00;99.90;;;;;;7337236;19;110546;-62
2023/08/20 04:21:23;;;;;;;;;;;19.00;99.90;;;;;;7335696;19;109534;-62
2023/08/20 04:23:50;;;;;;;;;;;18.90;99.90;;;;;;7333257;19;109112;-62
2023/08/20 04:26:17;;;;;;;;;;;18.90;99.90;;;;;;7334383;19;110021;-62
2023/08/20 04:28:44;;;;;;;;;;;18.90;99.90;;;;;;7335962;19;110374;-61
2023/08/20 04:31:12;;;;;;;;;;;18.90;99.90;;;;;;7339469;19;108504;-62
2023/08/20 04:33:39;;;;;;;;;;;19.00;99.90;;;;;;7338180;19;109208;-62
2023/08/20 04:36:06;;;;;;;;;;;19.00;99.90;;;;;;7335030;19;108410;-62
2023/08/20 04:38:33;;;;;;;;;;;19.10;99.90;;;;;;7337069;19;110145;-62
2023/08/20 04:41:00;;;;;;;;;;;19.10;99.90;;;;;;7334948;19;109748;-62
2023/08/20 04:43:27;;;;;;;;;;;19.10;99.90;;;;;;7334266;19;109303;-62
2023/08/20 04:45:54;;;;;;;;;;;19.10;99.90;;;;;;7335144;19;109240;-62
2023/08/20 04:48:21;;;;;;;;;;;18.90;99.90;;;;;;7335631;19;109095;-62
2023/08/20 04:50:48;;;;;;;;;;;18.90;99.90;;;;;;7333825;19;111936;-62
2023/08/20 04:53:15;;;;;;;;;;;18.90;99.90;;;;;;7337776;19;111409;-62
2023/08/20 04:55:42;;;;;;;;;;;18.90;99.90;;;;;;7334199;19;108858;-62
2023/08/20 04:58:09;;;;;;;;;;;18.90;99.90;;;;;;7335045;19;110671;-62
2023/08/20 05:00:37;;;;;;;;;;;18.90;99.90;;;;;;7334312;19;109001;-63
2023/08/20 05:03:04;;;;;;;;;;;18.90;99.90;;;;;;7337518;19;108490;-63
2023/08/20 05:05:31;;;;;;;;;;;18.90;99.90;;;;;;7333977;19;109288;-63
2023/08/20 05:07:58;;;;;;;;;;;18.90;99.90;;;;;;7335692;19;113337;-63
2023/08/20 05:10:25;;;;;;;;;;;18.80;99.90;;;;;;7333515;19;109512;-62
2023/08/20 05:12:52;;;;;;;;;;;18.80;99.90;;;;;;7334697;19;111396;-65
2023/08/20 05:15:20;;;;;;;;;;;18.80;99.90;;;;;;7338225;19;109142;-63
2023/08/20 05:17:47;;;;;;;;;;;18.90;99.90;;;;;;7336058;19;110178;-62
2023/08/20 05:20:18;;;;;;;;;;;18.90;99.90;;;;;;7328410;19;119546;-64
2023/08/20 05:22:45;;;;;;;;;;;19.00;99.90;;;;;;7337680;19;109080;-91
2023/08/20 05:25:12;;;;;;;;;;;19.00;99.90;;;;;;7342692;19;113403;-94
2023/08/20 05:33:00;;;;;;;;;;;19.00;99.90;;;;;;7329431;19;109883;-62
2023/08/20 05:35:28;;;;;;;;;;;19.10;99.90;;;;;;7330611;19;109196;-62
2023/08/20 05:37:55;;;;;;;;;;;19.10;99.90;;;;;;7338681;19;109801;-61
2023/08/20 05:40:23;;;;;;;;;;;19.20;99.90;;;;;;7335533;19;108613;-62
2023/08/20 05:42:50;;;;;;;;;;;19.20;99.90;;;;;;7334885;19;109299;-61
2023/08/20 05:45:18;;;;;;;;;;;19.30;99.90;;;;;;7333962;19;109150;-62
2023/08/20 05:47:45;;;;;;;;;;;19.40;99.90;;;;;;7332443;19;109605;-62
2023/08/20 05:50:15;;;;;;;;;;;19.40;99.90;;;;;;7334635;19;109654;-62
2023/08/20 05:52:42;;;;;;;;;;;19.50;99.90;;;;;;7330860;19;110000;-61
2023/08/20 05:55:09;;;;;;;;;;;19.50;99.90;;;;;;7332082;19;109059;-62
2023/08/20 05:57:36;;;;;;;;;;;19.60;99.90;;;;;;7331013;19;108693;-61
2023/08/20 06:00:04;;;;;;;;;;;19.70;99.90;;;;;;7331393;19;110721;-60
2023/08/20 06:02:31;;;;;;;;;;;19.80;99.90;;;;;;7332053;19;110673;-60
2023/08/20 06:04:58;;;;;;;;;;;19.90;99.90;;;;;;7332502;19;110449;-60
2023/08/20 06:07:26;;;;;;;;;;;20.10;99.90;;;;;;7333567;19;108407;-60
2023/08/20 06:09:53;;;;;;;;;;;20.10;99.90;;;;;;7333070;19;109382;-60
2023/08/20 06:12:20;;;;;;;;;;;20.20;99.90;;;;;;7332882;19;109383;-60
2023/08/20 06:14:47;;;;;;;;;;;20.30;99.90;;;;;;7329204;19;108481;-60
2023/08/20 06:17:14;;;;;;;;;;;20.40;99.90;;;;;;7334594;19;109527;-60
2023/08/20 06:19:41;;;;;;;;;;;20.50;99.90;;;;;;7333701;19;109314;-61
2023/08/20 06:22:08;;;;;;;;;;;20.60;99.90;;;;;;7341113;19;108827;-60
2023/08/20 06:24:35;;;;;;;;;;;20.60;99.90;;;;;;7331974;19;110419;-61
2023/08/20 06:27:03;;;;;;;;;;;20.70;99.90;;;;;;7334314;19;108986;-60
2023/08/20 06:29:31;;;;;;;;;;;20.90;99.90;;;;;;7331553;19;109732;-60
2023/08/20 06:31:58;;;;;;;;;;;21.00;99.90;;;;;;7332439;19;109096;-60
2023/08/20 06:34:25;;;;;;;;;;;21.10;99.90;;;;;;7331504;19;108970;-60
2023/08/20 06:36:52;;;;;;;;;;;21.20;99.90;;;;;;7334291;19;108641;-61
2023/08/20 06:39:19;;;;;;;;;;;21.30;99.90;;;;;;7333186;19;109239;-60
2023/08/20 06:41:47;;;;;;;;;;;21.40;99.90;;;;;;7339861;19;108696;-60
2023/08/20 06:44:14;;;;;;;;;;;21.50;99.90;;;;;;7331444;19;109145;-61
2023/08/20 06:46:41;;;;;;;;;;;21.60;99.90;;;;;;7334569;19;109576;-77
2023/08/20 06:49:08;;;;;;;;;;;21.70;99.90;;;;;;7332513;19;109936;-78
2023/08/20 06:51:35;;;;;;;;;;;21.80;99.90;;;;;;7331788;19;109740;-78
2023/08/20 06:54:05;;;;;;;;;;;22.00;99.90;;;;;;7336194;19;108777;-78
2023/08/20 06:56:33;;;;;;;;;;;22.10;99.90;;;;;;7333078;19;111040;-77
2023/08/20 06:59:00;;;;;;;;;;;22.10;99.90;;;;;;7333494;19;111517;-77
2023/08/20 07:01:27;;;;;;;;;;;22.20;99.90;;;;;;7333986;19;108932;-77
2023/08/20 07:03:54;;;;;;;;;;;22.30;99.90;;;;;;7335507;19;109188;-78
2023/08/20 07:06:21;;;;;;;;;;;22.40;99.90;;;;;;7332652;19;108367;-78
2023/08/20 07:08:49;;;;;;;;;;;22.50;99.90;;;;;;7331821;19;108919;-78
2023/08/20 07:11:16;;;;;;;;;;;22.50;99.90;;;;;;7332198;19;109133;-79
2023/08/20 07:13:44;;;;;;;;;;;22.60;99.90;;;;;;7332469;19;108894;-78
2023/08/20 07:16:11;;;;;;;;;;;22.60;99.90;;;;;;7330558;19;109056;-77
2023/08/20 07:18:38;;;;;;;;;;;22.70;99.90;;;;;;7331619;19;110783;-77
2023/08/20 07:21:07;;;;;;;;;;;22.70;99.90;;;;;;7335169;19;109038;-77
2023/08/20 07:23:34;;;;;;;;;;;22.80;99.90;;;;;;7331654;19;109086;-78
2023/08/20 07:26:08;;;;;;;;;;;22.80;99.90;;;;;;7338849;19;110000;-78
2023/08/20 07:31:21;;;;;;;;;;;22.90;99.90;;;;;;7331651;19;110684;-78
2023/08/20 07:33:49;;;;;;;;;;;22.90;99.90;;;;;;7334556;19;110149;-78
2023/08/20 07:36:17;;;;;;;;;;;23.00;99.90;;;;;;7333251;19;110055;-78
2023/08/20 07:38:44;;;;;;;;;;;23.10;99.90;;;;;;7333089;19;110372;-80
2023/08/20 07:41:11;;;;;;;;;;;23.10;99.90;;;;;;7332659;19;108732;-79
2023/08/20 07:43:39;;;;;;;;;;;23.20;99.90;;;;;;7332779;19;110285;-78
2023/08/20 07:46:07;;;;;;;;;;;23.30;99.90;;;;;;7341185;19;109876;-79
2023/08/20 07:48:35;;;;;;;;;;;23.30;99.90;;;;;;7345726;19;108801;-78
2023/08/20 07:51:02;;;;;;;;;;;23.40;99.90;;;;;;7339394;19;109813;-79
2023/08/20 07:53:30;;;;;;;;;;;23.40;99.90;;;;;;7340252;19;109369;-78
2023/08/20 07:55:57;;;;;;;;;;;23.50;99.90;;;;;;7339477;19;108448;-78
2023/08/20 07:58:24;;;;;;;;;;;23.50;99.90;;;;;;7339673;19;109749;-79
2023/08/20 08:00:54;;;;;;;;;;;23.60;99.90;;;;;;7338157;19;109134;-76
2023/08/20 08:03:21;;;;;;;;;;;23.60;99.90;;;;;;7339201;19;109061;-75
2023/08/20 08:05:49;;;;;;;;;;;23.60;99.90;;;;;;7339723;19;109689;-78
2023/08/20 08:08:17;;;;;;;;;;;23.60;99.90;;;;;;7338543;19;109852;-77
2023/08/20 08:10:44;;;;;;;;;;;23.70;99.90;;;;;;7343339;19;110978;-78
2023/08/20 08:13:12;;;;;;;;;;;23.70;99.90;;;;;;7339210;19;108550;-78
2023/08/20 08:15:39;;;;;;;;;;;23.90;99.90;;;;;;7338726;19;108672;-78
2023/08/20 08:18:07;;;;;;;;;;;24.00;99.90;;;;;;7340176;19;110875;-78
2023/08/20 08:20:34;;;;;;;;;;;24.10;99.90;;;;;;7336764;19;110456;-78
2023/08/20 08:23:01;;;;;;;;;;;24.20;99.90;;;;;;7340724;19;108725;-79
2023/08/20 08:25:28;;;;;;;;;;;24.30;99.90;;;;;;7338741;19;109205;-79
2023/08/20 08:27:56;;;;;;;;;;;24.40;99.90;;;;;;7338936;19;108859;-80
2023/08/20 08:30:27;;;;;;;;;;;24.50;99.90;;;;;;7338247;19;108754;-79
2023/08/20 08:32:54;;;;;;;;;;;24.50;99.90;;;;;;7342718;19;109475;-79
2023/08/20 08:35:21;;;;;;;;;;;24.60;99.90;;;;;;7338362;19;109257;-78
2023/08/20 08:37:48;;;;;;;;;;;24.70;99.90;;;;;;7339636;19;110170;-78
2023/08/20 08:40:15;;;;;;;;;;;24.70;99.90;;;;;;7338530;19;109783;-79
2023/08/20 08:42:45;;;;;;;;;;;24.80;99.90;;;;;;7340470;19;108703;-77
2023/08/20 08:45:12;;;;;;;;;;;24.90;99.90;;;;;;7338732;19;109617;-77
2023/08/20 08:47:39;;;;;;;;;;;24.90;99.90;;;;;;7339570;19;110381;-77
2023/08/20 08:50:07;;;;;;;;;;;25.00;99.90;;;;;;7339162;19;111019;-77
2023/08/20 08:52:35;;;;;;;;;;;25.10;99.90;;;;;;7341284;19;109117;-77
2023/08/20 08:55:03;;;;;;;;;;;25.10;99.90;;;;;;7335194;19;109200;-77
2023/08/20 08:57:30;;;;;;;;;;;25.20;99.90;;;;;;7336110;19;110121;-77
2023/08/20 08:59:58;;;;;;;;;;;25.20;99.90;;;;;;7337837;19;108782;-77
2023/08/20 09:02:25;;;;;;;;;;;25.30;99.90;;;;;;7339239;19;109954;-76
2023/08/20 09:04:52;;;;;;;;;;;25.40;99.90;;;;;;7335830;19;109481;-77
2023/08/20 09:07:19;;;;;;;;;;;25.40;99.90;;;;;;7338496;19;109321;-77
2023/08/20 09:09:46;;;;;;;;;;;25.50;99.90;;;;;;7338705;19;109070;-77
2023/08/20 09:12:16;;;;;;;;;;;25.60;99.90;;;;;;7335992;19;110296;-77
2023/08/20 09:14:45;;;;;;;;;;;25.80;99.90;;;;;;7343712;19;112588;-77
2023/08/20 09:17:12;;;;;;;;;;;25.90;99.90;;;;;;7336681;19;109190;-77
2023/08/20 09:19:41;;;;;;;;;;;26.00;99.90;;;;;;7340302;19;108415;-76
2023/08/20 09:22:08;;;;;;;;;;;26.10;99.90;;;;;;7340193;19;109063;-77
2023/08/20 09:24:42;;;;;;;;;;;26.10;99.90;;;;;;7338050;19;109695;-77
2023/08/20 09:27:09;;;;;;;;;;;26.20;99.90;;;;;;7335745;19;110603;-77
2023/08/20 09:29:43;;;;;;;;;;;26.30;99.90;;;;;;7336943;19;109186;-77
2023/08/20 09:32:15;;;;;;;;;;;26.30;99.90;;;;;;7337868;19;110272;-77
2023/08/20 09:34:42;;;;;;;;;;;26.30;99.90;;;;;;7336087;19;108847;-77
2023/08/20 09:37:10;;;;;;;;;;;26.30;99.90;;;;;;7341418;19;110983;-77
2023/08/20 09:39:37;;;;;;;;;;;26.40;99.90;;;;;;7336088;19;109443;-76
2023/08/20 09:42:05;;;;;;;;;;;26.40;99.90;;;;;;7336831;19;109756;-77
2023/08/20 09:44:35;;;;;;;;;;;26.40;99.90;;;;;;7334958;19;109150;-77
2023/08/20 09:47:09;;;;;;;;;;;26.50;99.90;;;;;;7337134;19;108852;-78
2023/08/20 09:49:37;;;;;;;;;;;26.50;99.90;;;;;;7336246;19;109270;-77
2023/08/20 09:52:06;;;;;;;;;;;26.60;99.90;;;;;;7335204;19;110121;-77
2023/08/20 09:54:38;;;;;;;;;;;26.70;99.90;;;;;;7334982;19;108630;-76
2023/08/20 09:57:08;;;;;;;;;;;26.80;99.90;;;;;;7336500;19;109129;-76
2023/08/20 09:59:36;;;;;;;;;;;26.80;99.90;;;;;;7340878;19;110611;-76
2023/08/20 10:02:03;;;;;;;;;;;26.80;99.90;;;;;;7336617;19;108538;-76
2023/08/20 10:04:31;;;;;;;;;;;26.90;99.90;;;;;;7335524;19;109420;-77
2023/08/20 10:06:58;;;;;;;;;;;26.80;99.90;;;;;;7337117;19;108334;-77
2023/08/20 10:09:25;;;;;;;;;;;26.80;99.90;;;;;;7337973;19;108439;-74
2023/08/20 10:11:52;;;;;;;;;;;26.70;99.90;;;;;;7337391;19;110039;-76
2023/08/20 10:14:19;;;;;;;;;;;26.70;99.90;;;;;;7336440;19;108899;-77
2023/08/20 10:16:46;;;;;;;;;;;26.70;99.90;;;;;;7335979;19;109721;-77
2023/08/20 10:19:15;;;;;;;;;;;26.80;99.90;;;;;;7337150;19;109696;-76
2023/08/20 10:21:46;;;;;;;;;;;26.90;99.90;;;;;;7341657;19;108739;-77
2023/08/20 10:24:17;;;;;;;;;;;27.00;99.90;;;;;;7336366;19;109177;-77
2023/08/20 10:26:45;;;;;;;;;;;27.00;99.90;;;;;;7336840;19;108384;-77
2023/08/20 10:29:31;;;;;;;;;;;27.10;99.90;;;;;;7336630;19;109171;-77
2023/08/20 10:31:58;;;;;;;;;;;27.10;99.90;;;;;;7334306;19;109351;-77
2023/08/20 10:34:34;;;;;;;;;;;27.10;99.90;;;;;;7334453;19;108613;-77
2023/08/20 10:37:03;;;;;;;;;;;27.10;99.90;;;;;;7336025;19;109155;-78
2023/08/20 10:39:31;;;;;;;;;;;27.20;99.90;;;;;;7333624;19;111243;-75
2023/08/20 10:42:16;;;;;;;;;;;27.20;99.90;;;;;;7337073;19;109282;-77
2023/08/20 10:44:56;;;;;;;;;;;27.40;99.90;;;;;;7340636;19;111185;-77
2023/08/20 10:47:25;;;;;;;;;;;27.50;99.90;;;;;;7333107;19;109032;-76
2023/08/20 10:49:53;;;;;;;;;;;27.50;99.90;;;;;;7335391;19;109513;-77
2023/08/20 10:52:22;;;;;;;;;;;27.40;99.90;;;;;;7334361;19;109135;-77
2023/08/20 10:54:50;;;;;;;;;;;27.50;99.90;;;;;;7337042;19;109049;-77
2023/08/20 10:57:21;;;;;;;;;;;27.60;99.90;;;;;;7338484;19;108753;-76
2023/08/20 11:00:00;;;;;;;;;;;27.60;99.90;;;;;;7333025;19;110517;-76
2023/08/20 11:02:27;;;;;;;;;;;27.70;99.90;;;;;;7335009;19;108696;-76
2023/08/20 11:04:55;;;;;;;;;;;27.80;99.90;;;;;;7339602;19;109034;-77
2023/08/20 11:07:25;;;;;;;;;;;27.90;99.90;;;;;;7335609;19;108993;-76
2023/08/20 11:09:53;;;;;;;;;;;28.00;99.90;;;;;;7334155;19;108757;-76
2023/08/20 11:12:20;;;;;;;;;;;28.00;99.90;;;;;;7332327;19;110464;-76
2023/08/20 11:14:48;;;;;;;;;;;28.10;99.90;;;;;;7336191;19;108813;-76
2023/08/20 11:17:15;;;;;;;;;;;28.10;99.90;;;;;;7334305;19;109194;-76
2023/08/20 11:19:42;;;;;;;;;;;28.10;99.90;;;;;;7341736;19;109663;-77
2023/08/20 11:22:15;;;;;;;;;;;28.20;99.90;;;;;;7341219;19;109406;-78
2023/08/20 11:24:43;;;;;;;;;;;28.20;99.90;;;;;;7340125;19;108887;-77
2023/08/20 11:27:10;;;;;;;;;;;28.30;99.90;;;;;;7344406;19;110902;-76
2023/08/20 11:29:41;;;;;;;;;;;28.30;99.90;;;;;;7339134;19;109099;-77
2023/08/20 11:32:09;;;;;;;;;;;28.40;99.90;;;;;;7340416;19;110174;-76
2023/08/20 11:34:37;;;;;;;;;;;28.30;99.90;;;;;;7336990;19;110549;-77
2023/08/20 11:37:05;;;;;;;;;;;28.30;99.90;;;;;;7342650;19;109186;-76
2023/08/20 11:39:33;;;;;;;;;;;28.40;99.90;;;;;;7337754;19;110139;-75
2023/08/20 11:42:01;;;;;;;;;;;28.60;99.90;;;;;;7341599;19;108623;-76
2023/08/20 11:44:41;;;;;;;;;;;28.70;99.90;;;;;;7340025;19;108637;-76
2023/08/20 11:47:18;;;;;;;;;;;28.90;99.90;;;;;;7339509;19;109738;-76
2023/08/20 11:49:45;;;;;;;;;;;29.00;99.90;;;;;;7346753;19;108758;-76
2023/08/20 11:52:13;;;;;;;;;;;29.10;99.90;;;;;;7339980;19;109075;-75
2023/08/20 11:54:41;;;;;;;;;;;29.20;99.90;;;;;;7339683;19;108641;-75
2023/08/20 11:57:08;;;;;;;;;;;29.20;99.90;;;;;;7342243;19;109712;-77
2023/08/20 11:59:35;;;;;;;;;;;29.20;99.90;;;;;;7338449;19;110270;-76
2023/08/20 12:02:03;;;;;;;;;;;29.30;99.90;;;;;;7340975;19;108786;-76
2023/08/20 12:04:30;;;;;;;;;;;29.20;99.90;;;;;;7340374;19;108948;-76
2023/08/20 12:07:07;;;;;;;;;;;29.30;99.90;;;;;;7342360;19;109082;-75
2023/08/20 12:09:34;;;;;;;;;;;29.40;99.90;;;;;;7338792;19;108415;-75
2023/08/20 12:12:02;;;;;;;;;;;29.70;99.90;;;;;;7342489;19;109159;-76
2023/08/20 12:14:29;;;;;;;;;;;29.90;99.90;;;;;;7339484;19;108444;-76
2023/08/20 12:17:05;;;;;;;;;;;30.10;99.90;;;;;;7339499;19;109480;-76
2023/08/20 12:19:32;;;;;;;;;;;30.10;99.90;;;;;;7339060;19;109108;-75
2023/08/20 12:21:59;;;;;;;;;;;30.00;99.90;;;;;;7339583;19;108359;-75
2023/08/20 12:24:26;;;;;;;;;;;30.00;99.90;;;;;;7340189;19;109158;-76
2023/08/20 12:26:54;;;;;;;;;;;30.10;99.90;;;;;;7342403;19;110339;-76
2023/08/20 12:29:21;;;;;;;;;;;30.30;99.90;;;;;;7337703;19;109044;-76
2023/08/20 12:31:48;;;;;;;;;;;30.40;99.90;;;;;;7343287;19;109093;-76
2023/08/20 12:34:15;;;;;;;;;;;30.60;99.90;;;;;;7346382;19;109720;-76
2023/08/20 12:36:42;;;;;;;;;;;30.60;99.90;;;;;;7341149;19;109319;-75
2023/08/20 12:39:09;;;;;;;;;;;30.50;99.90;;;;;;7343096;19;110670;-76
2023/08/20 12:41:36;;;;;;;;;;;30.60;99.80;;;;;;7341098;19;108482;-76
2023/08/20 12:44:03;;;;;;;;;;;30.60;99.00;;;;;;7344484;19;108650;-76
2023/08/20 12:46:30;;;;;;;;;;;30.40;98.10;;;;;;7341718;19;109177;-76
2023/08/20 12:48:57;;;;;;;;;;;30.30;98.20;;;;;;7343386;19;108710;-75
2023/08/20 12:51:25;;;;;;;;;;;30.20;97.60;;;;;;7339948;19;108416;-76
2023/08/20 12:53:52;;;;;;;;;;;30.30;99.30;;;;;;7341066;19;110329;-76
2023/08/20 12:56:19;;;;;;;;;;;30.50;97.80;;;;;;7345845;19;108811;-75
2023/08/20 12:58:46;;;;;;;;;;;30.60;98.00;;;;;;7339670;19;109222;-75
2023/08/20 13:01:14;;;;;;;;;;;30.70;99.90;;;;;;7344789;19;108722;-75
2023/08/20 13:03:41;;;;;;;;;;;31.00;99.90;;;;;;7341403;19;108676;-74
2023/08/20 13:06:09;;;;;;;;;;;31.30;99.90;;;;;;7343138;19;109832;-75
2023/08/20 13:08:36;;;;;;;;;;;31.50;98.10;;;;;;7342484;19;110086;-74
2023/08/20 13:11:06;;;;;;;;;;;31.60;99.10;;;;;;7340346;19;108653;-75
2023/08/20 13:13:34;;;;;;;;;;;31.80;99.10;;;;;;7339789;19;112006;-75
2023/08/20 13:16:02;;;;;;;;;;;31.90;98.20;;;;;;7349693;19;108435;-76
2023/08/20 13:18:29;;;;;;;;;;;32.00;97.60;;;;;;7339518;19;108830;-75
2023/08/20 13:20:56;;;;;;;;;;;31.90;97.10;;;;;;7342261;19;108872;-76
2023/08/20 13:23:24;;;;;;;;;;;31.80;97.30;;;;;;7342681;19;109729;-75
2023/08/20 13:25:51;;;;;;;;;;;31.90;98.00;;;;;;7342289;19;109085;-75
2023/08/20 13:28:18;;;;;;;;;;;32.00;98.20;;;;;;7339504;19;108261;-75
2023/08/20 13:30:45;;;;;;;;;;;32.00;98.80;;;;;;7344833;19;109155;-74
2023/08/20 13:33:13;;;;;;;;;;;32.10;97.00;;;;;;7339850;19;109353;-76
2023/08/20 13:35:41;;;;;;;;;;;32.10;97.20;;;;;;7341805;19;110025;-76
2023/08/20 13:38:09;;;;;;;;;;;31.80;94.30;;;;;;7347035;19;108386;-75
2023/08/20 13:40:37;;;;;;;;;;;31.80;97.40;;;;;;7341090;19;108625;-75
2023/08/20 13:43:04;;;;;;;;;;;32.00;97.00;;;;;;7339072;19;108548;-75
2023/08/20 13:45:32;;;;;;;;;;;32.10;96.30;;;;;;7340192;19;109152;-75
2023/08/20 13:47:59;;;;;;;;;;;32.20;95.60;;;;;;7342881;19;108521;-76
2023/08/20 13:50:26;;;;;;;;;;;32.40;96.90;;;;;;7339874;19;110293;-76
2023/08/20 13:52:53;;;;;;;;;;;32.70;96.10;;;;;;7340197;19;109463;-76
2023/08/20 13:55:21;;;;;;;;;;;32.80;97.30;;;;;;7342385;19;109751;-76
2023/08/20 13:57:48;;;;;;;;;;;32.80;96.40;;;;;;7344030;19;108765;-75
2023/08/20 14:00:15;;;;;;;;;;;32.70;96.60;;;;;;7341416;19;108293;-76
2023/08/20 14:02:43;;;;;;;;;;;32.70;97.40;;;;;;7342362;19;109081;-76
2023/08/20 14:05:10;;;;;;;;;;;32.60;96.90;;;;;;7339384;19;109536;-75
2023/08/20 14:07:37;;;;;;;;;;;32.50;97.50;;;;;;7339611;19;108849;-76
2023/08/20 14:10:05;;;;;;;;;;;32.50;96.60;;;;;;7341827;19;108884;-75
2023/08/20 14:12:33;;;;;;;;;;;32.40;97.20;;;;;;7340332;19;109440;-76
2023/08/20 14:15:04;;;;;;;;;;;32.50;97.70;;;;;;7340032;19;110717;-75
2023/08/20 14:17:31;;;;;;;;;;;32.50;97.30;;;;;;7341888;19;109454;-75